Time;durP1;ratioP1;P1;durP2;ratioP2;P2;SDS_P1;SDS_P2;PMS_P1;PMS_P2;Temp;Humidity;BMP_temperature;BMP_pressure;BME280_temperature;BME280_humidity;BME280_pressure;Samples;Min_cycle;Max_cycle;Signal;HPM_P1;HPM_P2
2023/06/20 00:01:55;;;;;;;5.47;3.60;;;;;;;24.69;44.24;99518.72;4362212;32;34662;-60
2023/06/20 00:04:23;;;;;;;9.52;4.70;;;;;;;24.63;44.57;99511.38;4359133;32;34949;-60
2023/06/20 00:06:51;;;;;;;8.02;4.72;;;;;;;24.65;44.55;99520.19;4362547;32;33520;-59
2023/06/20 00:09:18;;;;;;;9.77;4.82;;;;;;;24.64;44.42;99523.97;4354716;32;33753;-59
2023/06/20 00:11:46;;;;;;;11.23;4.60;;;;;;;24.56;44.34;99519.56;4361807;32;34132;-59
2023/06/20 00:14:14;;;;;;;9.00;4.10;;;;;;;24.55;44.40;99526.09;4347945;32;34172;-60
2023/06/20 00:16:41;;;;;;;7.40;4.62;;;;;;;24.55;44.34;99522.50;4360861;32;33001;-60
2023/06/20 00:19:09;;;;;;;9.02;4.75;;;;;;;24.56;44.40;99524.22;4354859;32;35089;-60
2023/06/20 00:21:39;;;;;;;5.72;3.72;;;;;;;24.36;44.87;99522.25;4347660;33;33903;-59
2023/06/20 00:24:10;;;;;;;6.78;4.20;;;;;;;24.35;45.05;99522.47;4352809;32;33982;-59
2023/06/20 00:26:38;;;;;;;6.05;3.83;;;;;;;24.40;44.75;99528.19;4358447;32;34470;-60
2023/06/20 00:29:05;;;;;;;5.50;3.60;;;;;;;24.16;45.38;99529.59;4360115;32;33487;-60
2023/06/20 00:31:34;;;;;;;8.73;4.18;;;;;;;24.32;44.85;99522.91;4360851;32;34959;-60
2023/06/20 00:34:02;;;;;;;6.53;4.37;;;;;;;24.27;44.78;99528.13;4342317;33;34349;-60
2023/06/20 00:36:30;;;;;;;6.78;3.97;;;;;;;24.30;44.78;99530.47;4346615;32;33590;-60
2023/06/20 00:38:57;;;;;;;5.40;3.45;;;;;;;24.17;45.02;99526.69;4353967;32;34680;-60
2023/06/20 00:41:25;;;;;;;6.55;4.15;;;;;;;24.10;45.39;99530.44;4362199;32;34201;-60
2023/06/20 00:43:52;;;;;;;7.30;4.12;;;;;;;24.04;45.50;99521.16;4362355;32;34588;-60
2023/06/20 00:46:23;;;;;;;6.47;3.78;;;;;;;24.00;45.50;99522.63;4359015;32;33191;-60
2023/06/20 00:48:54;;;;;;;7.55;4.55;;;;;;;23.92;45.84;99529.16;4356512;32;34745;-59
2023/06/20 00:51:22;;;;;;;9.98;4.05;;;;;;;23.70;46.30;99525.72;4350704;32;33979;-59
2023/06/20 00:53:50;;;;;;;8.23;4.45;;;;;;;23.72;46.19;99528.22;4356326;32;34191;-59
2023/06/20 00:56:18;;;;;;;8.10;4.43;;;;;;;23.87;45.99;99525.34;4328681;33;33751;-60
2023/06/20 00:58:46;;;;;;;6.57;3.92;;;;;;;23.86;46.26;99524.50;4317565;33;33572;-60
2023/06/20 01:01:16;;;;;;;7.22;4.40;;;;;;;24.06;45.78;99523.72;4315733;33;33950;-59
2023/06/20 01:03:46;;;;;;;6.22;3.83;;;;;;;23.88;46.07;99525.16;4324089;33;33510;-59
2023/06/20 01:06:42;;;;;;;5.87;3.83;;;;;;;23.91;46.11;99516.50;4337478;33;33123;-60
2023/06/20 01:09:38;;;;;;;7.40;4.18;;;;;;;23.78;46.46;99518.38;4329038;33;33784;-64
2023/06/20 01:12:13;;;;;;;7.47;4.05;;;;;;;23.81;46.41;99527.00;4329987;33;33979;-59
2023/06/20 01:14:49;;;;;;;;;;;;;;;23.78;46.47;99527.41;4330616;33;34227;-59
2023/06/20 01:17:23;;;;;;;8.57;4.40;;;;;;;23.69;46.68;99525.91;4329395;33;34282;-59
2023/06/20 01:20:12;;;;;;;5.60;3.53;;;;;;;23.54;46.97;99530.69;4317698;33;33249;-59
2023/06/20 01:22:44;;;;;;;7.40;4.65;;;;;;;23.56;47.00;99525.84;4331458;33;33560;-60
2023/06/20 01:25:23;;;;;;;6.80;4.07;;;;;;;23.49;47.04;99523.91;4332784;33;33599;-59
2023/06/20 01:28:30;;;;;;;5.95;4.03;;;;;;;23.52;47.07;99530.03;4332572;33;33309;-59
2023/06/20 01:31:11;;;;;;;5.43;4.15;;;;;;;23.59;46.98;99533.63;4285993;33;33710;-59
2023/06/20 01:33:48;;;;;;;7.50;4.20;;;;;;;23.55;46.98;99535.09;4300852;33;34915;-59
2023/06/20 01:36:18;;;;;;;7.50;3.70;;;;;;;23.55;47.10;99530.47;4319672;33;33680;-59
2023/06/20 01:38:49;;;;;;;8.85;4.53;;;;;;;23.56;47.06;99521.22;4305047;33;32998;-59
2023/06/20 01:41:21;;;;;;;5.07;3.17;;;;;;;23.55;47.11;99524.16;4322595;33;33555;-59
2023/06/20 01:43:49;;;;;;;6.55;4.25;;;;;;;23.61;47.13;99531.53;4326515;33;33915;-59
2023/06/20 01:46:18;;;;;;;5.95;3.95;;;;;;;23.46;47.58;99526.22;4316269;33;34862;-59
2023/06/20 01:48:47;;;;;;;8.70;4.43;;;;;;;23.53;47.48;99528.97;4317892;33;33641;-59
2023/06/20 01:51:15;;;;;;;6.50;4.30;;;;;;;23.53;47.62;99531.69;4304806;33;33656;-59
2023/06/20 01:53:44;;;;;;;8.90;3.87;;;;;;;23.56;47.55;99523.09;4306949;33;34107;-59
2023/06/20 01:56:12;;;;;;;6.82;4.93;;;;;;;23.49;47.70;99515.72;4320490;33;33939;-59
2023/06/20 01:58:43;;;;;;;7.50;5.07;;;;;;;23.43;47.92;99522.00;4342972;33;34089;-59
2023/06/20 02:01:11;;;;;;;8.05;5.07;;;;;;;23.62;47.59;99525.84;4344639;33;33398;-59
2023/06/20 02:03:41;;;;;;;7.32;4.20;;;;;;;23.53;47.74;99518.91;4331672;33;34251;-60
2023/06/20 02:06:11;;;;;;;6.93;4.70;;;;;;;23.55;47.58;99519.53;4330792;33;33457;-59
2023/06/20 02:08:39;;;;;;;8.27;4.82;;;;;;;23.55;47.57;99515.97;4341544;32;33589;-60
2023/06/20 02:11:08;;;;;;;7.07;4.55;;;;;;;23.54;47.54;99512.41;4299904;33;33322;-59
2023/06/20 02:13:36;;;;;;;7.78;5.00;;;;;;;23.51;47.62;99522.88;4257700;33;32919;-59
2023/06/20 02:16:06;;;;;;;8.30;4.35;;;;;;;23.45;47.68;99519.91;4258995;33;34917;-59
2023/06/20 02:18:36;;;;;;;8.38;4.50;;;;;;;23.52;47.31;99521.84;4271868;33;32976;-59
2023/06/20 02:21:05;;;;;;;7.30;4.72;;;;;;;23.48;47.38;99524.12;4262474;33;33866;-60
2023/06/20 02:23:34;;;;;;;7.68;4.12;;;;;;;23.44;47.25;99518.25;4265493;33;33840;-59
2023/06/20 02:26:10;;;;;;;6.78;4.22;;;;;;;23.38;47.33;99521.78;4266991;33;33626;-59
2023/06/20 02:28:54;;;;;;;7.90;4.22;;;;;;;23.37;47.33;99531.03;4253832;33;33007;-59
2023/06/20 02:31:27;;;;;;;5.10;3.47;;;;;;;23.27;47.75;99530.53;4271657;33;34710;-59
2023/06/20 02:33:58;;;;;;;9.35;4.07;;;;;;;23.37;47.51;99531.03;4271792;33;36133;-59
2023/06/20 02:36:28;;;;;;;8.05;4.37;;;;;;;23.32;47.54;99536.25;4265982;33;33644;-60
2023/06/20 02:38:57;;;;;;;7.93;4.80;;;;;;;23.29;47.70;99542.09;4228849;33;33324;-60
2023/06/20 02:41:24;;;;;;;13.50;5.00;;;;;;;23.33;47.71;99537.06;4233332;33;34961;-59
2023/06/20 02:43:52;;;;;;;7.30;4.15;;;;;;;23.34;47.74;99542.34;4287779;33;33996;-60
2023/06/20 02:46:32;;;;;;;11.12;4.32;;;;;;;23.31;47.93;99544.66;4313582;33;33761;-59
2023/06/20 02:49:24;;;;;;;6.93;4.07;;;;;;;23.32;48.04;99541.69;4313223;33;33379;-59
2023/06/20 02:52:20;;;;;;;7.72;4.25;;;;;;;23.35;47.96;99527.66;4310708;33;34915;-59
2023/06/20 02:55:14;;;;;;;8.25;4.35;;;;;;;23.31;48.07;99534.56;4297804;33;34073;-60
2023/06/20 02:57:46;;;;;;;7.07;4.15;;;;;;;23.28;48.26;99536.87;4312166;33;33802;-60
2023/06/20 03:00:16;;;;;;;9.30;4.37;;;;;;;23.28;48.58;99536.87;4311735;33;33673;-60
2023/06/20 03:03:08;;;;;;;9.73;4.75;;;;;;;23.25;48.82;99540.84;4298183;33;33349;-59
2023/06/20 03:05:40;;;;;;;7.05;3.58;;;;;;;23.24;48.53;99545.44;4286906;33;34753;-60
2023/06/20 03:08:08;;;;;;;6.82;4.10;;;;;;;23.22;48.23;99549.44;4301329;33;34639;-60
2023/06/20 03:10:35;;;;;;;6.22;4.18;;;;;;;23.10;48.36;99551.87;4322000;33;32949;-60
2023/06/20 03:13:05;;;;;;;6.90;3.92;;;;;;;23.17;48.32;99546.44;4336180;33;33592;-59
2023/06/20 03:15:32;;;;;;;7.72;4.20;;;;;;;23.20;48.29;99556.97;4326053;33;33876;-59
2023/06/20 03:18:00;;;;;;;7.28;4.75;;;;;;;23.20;48.51;99552.34;4330798;33;34817;-59
2023/06/20 03:20:28;;;;;;;8.23;4.50;;;;;;;23.13;48.78;99556.09;4331250;33;34299;-60
2023/06/20 03:22:56;;;;;;;7.32;5.30;;;;;;;23.09;48.82;99554.81;4330837;33;34458;-60
2023/06/20 03:25:24;;;;;;;10.32;4.68;;;;;;;23.12;48.65;99549.78;4331623;33;35238;-60
2023/06/20 03:27:53;;;;;;;8.02;4.72;;;;;;;23.22;48.44;99561.19;4332923;33;34055;-59
2023/06/20 03:30:21;;;;;;;7.37;4.82;;;;;;;23.12;48.71;99560.72;4359202;32;33419;-59
2023/06/20 03:32:49;;;;;;;7.03;4.50;;;;;;;23.23;48.43;99564.75;4361629;32;33579;-60
2023/06/20 03:35:16;;;;;;;7.28;4.00;;;;;;;23.26;48.21;99569.81;4358116;32;33731;-59
2023/06/20 03:37:44;;;;;;;6.85;4.68;;;;;;;23.23;48.24;99568.31;4350680;32;34964;-60
2023/06/20 03:40:12;;;;;;;8.43;4.65;;;;;;;23.29;48.14;99574.03;4351736;32;33180;-60
2023/06/20 03:42:41;;;;;;;6.22;3.80;;;;;;;23.35;47.99;99574.06;4362981;32;33922;-59
2023/06/20 03:45:09;;;;;;;7.00;3.87;;;;;;;23.44;47.90;99570.12;4359956;32;34020;-59
2023/06/20 03:47:37;;;;;;;11.35;4.65;;;;;;;23.52;47.89;99579.19;4347553;32;33815;-60
2023/06/20 03:50:05;;;;;;;9.27;4.15;;;;;;;23.56;47.75;99588.66;4347952;33;33070;-59
2023/06/20 03:52:32;;;;;;;6.40;3.75;;;;;;;23.55;47.91;99581.53;4347991;32;34496;-59
2023/06/20 03:55:00;;;;;;;9.13;4.75;;;;;;;23.58;47.86;99587.41;4347556;32;33828;-59
2023/06/20 03:57:29;;;;;;;6.93;4.30;;;;;;;23.62;47.89;99582.37;4361970;32;34678;-59
2023/06/20 03:59:57;;;;;;;6.45;3.78;;;;;;;23.64;47.87;99583.88;4362579;32;32823;-59
2023/06/20 04:02:25;;;;;;;10.30;5.03;;;;;;;23.68;47.88;99587.91;4357480;32;34862;-60
2023/06/20 04:04:52;;;;;;;8.52;4.50;;;;;;;23.73;48.01;99583.75;4348744;32;34650;-60
2023/06/20 04:07:21;;;;;;;7.32;4.62;;;;;;;23.80;47.98;99579.97;4353002;32;33655;-60
2023/06/20 04:09:49;;;;;;;7.22;4.32;;;;;;;23.83;47.93;99579.56;4360658;32;33591;-60
2023/06/20 04:12:17;;;;;;;7.35;4.15;;;;;;;23.82;48.01;99577.91;4362333;32;33920;-59
2023/06/20 04:14:45;;;;;;;10.45;4.28;;;;;;;23.94;48.07;99576.22;4362530;32;34710;-59
2023/06/20 04:17:12;;;;;;;8.05;4.37;;;;;;;24.07;47.94;99571.84;4356118;32;34507;-60
2023/06/20 04:19:40;;;;;;;8.43;4.70;;;;;;;24.15;47.92;99571.69;4349517;32;34389;-60
2023/06/20 04:22:09;;;;;;;9.32;4.80;;;;;;;24.27;47.72;99577.38;4360632;32;34038;-60
2023/06/20 04:24:36;;;;;;;8.70;4.70;;;;;;;24.37;47.65;99575.94;4350557;32;33761;-59
2023/06/20 04:27:04;;;;;;;9.05;5.70;;;;;;;24.48;47.23;99576.38;4357757;32;35118;-60
2023/06/20 04:29:32;;;;;;;10.52;5.18;;;;;;;24.56;47.30;99568.00;4357648;32;33989;-59
2023/06/20 04:32:00;;;;;;;11.75;4.80;;;;;;;24.66;47.30;99573.03;4362325;32;33448;-59
2023/06/20 04:34:28;;;;;;;7.35;4.35;;;;;;;24.70;47.40;99569.66;4362500;32;34264;-59
2023/06/20 04:36:56;;;;;;;7.37;4.68;;;;;;;24.76;47.42;99574.28;4358251;32;35105;-59
2023/06/20 04:39:24;;;;;;;7.10;4.68;;;;;;;24.86;47.15;99571.97;4361021;32;33656;-60
2023/06/20 04:41:51;;;;;;;8.07;4.97;;;;;;;24.85;47.44;99573.03;4360685;32;33996;-60
2023/06/20 04:44:19;;;;;;;11.77;5.03;;;;;;;24.88;47.46;99582.72;4361529;32;33634;-59
2023/06/20 04:46:47;;;;;;;9.00;5.30;;;;;;;24.89;47.53;99576.19;4358769;32;34342;-59
2023/06/20 04:49:15;;;;;;;10.73;5.35;;;;;;;24.90;47.46;99580.59;4356784;32;33371;-59
2023/06/20 04:51:43;;;;;;;10.77;5.32;;;;;;;24.95;47.35;99585.44;4347298;33;33435;-59
2023/06/20 04:54:10;;;;;;;8.40;5.43;;;;;;;25.02;47.23;99581.63;4347286;33;34148;-59
2023/06/20 04:56:40;;;;;;;9.07;5.95;;;;;;;25.05;47.17;99589.44;4347480;32;34098;-60
2023/06/20 04:59:09;;;;;;;7.05;5.45;;;;;;;25.10;46.83;99581.44;4347972;32;33516;-60
2023/06/20 05:01:37;;;;;;;10.98;5.80;;;;;;;25.14;46.67;99584.63;4350025;32;33653;-60
2023/06/20 05:04:05;;;;;;;7.18;4.87;;;;;;;25.23;46.74;99580.59;4348969;32;34136;-60
2023/06/20 05:06:33;;;;;;;8.27;5.80;;;;;;;25.30;46.71;99588.81;4352305;32;33908;-60
2023/06/20 05:09:01;;;;;;;9.27;5.93;;;;;;;25.36;46.80;99587.06;4347822;32;33329;-60
2023/06/20 05:11:28;;;;;;;7.60;4.87;;;;;;;25.43;46.41;99596.97;4360601;32;33794;-59
2023/06/20 05:13:56;;;;;;;9.40;5.93;;;;;;;25.50;46.61;99594.22;4362122;32;33808;-60
2023/06/20 05:16:23;;;;;;;10.82;5.75;;;;;;;25.53;46.21;99597.37;4357160;32;33785;-61
2023/06/20 05:18:51;;;;;;;9.48;5.28;;;;;;;25.60;46.09;99596.50;4347322;32;32965;-60
2023/06/20 05:21:19;;;;;;;10.73;5.78;;;;;;;25.64;45.74;99593.09;4346826;33;33419;-59
2023/06/20 05:23:46;;;;;;;10.43;6.28;;;;;;;25.65;45.81;99600.28;4347772;32;35089;-60
2023/06/20 05:26:14;;;;;;;6.97;4.57;;;;;;;25.69;45.52;99590.56;4350062;32;33624;-59
2023/06/20 05:28:42;;;;;;;8.68;5.12;;;;;;;25.81;45.24;99592.66;4359707;32;33220;-61
2023/06/20 05:31:10;;;;;;;10.68;5.25;;;;;;;25.82;45.61;99592.44;4360882;32;34778;-60
2023/06/20 05:33:38;;;;;;;10.77;5.40;;;;;;;25.90;45.60;99594.94;4360232;32;34866;-60
2023/06/20 05:36:06;;;;;;;12.85;5.72;;;;;;;26.04;45.72;99589.41;4359054;32;33710;-60
2023/06/20 05:38:35;;;;;;;11.40;5.45;;;;;;;26.26;45.19;99590.75;4353798;32;34470;-59
2023/06/20 05:41:03;;;;;;;8.82;4.72;;;;;;;26.10;44.95;99602.22;4360032;32;34849;-61
2023/06/20 05:43:30;;;;;;;8.93;4.95;;;;;;;26.30;45.24;99602.13;4361325;32;34051;-61
2023/06/20 05:45:58;;;;;;;11.75;5.82;;;;;;;26.28;44.66;99610.56;4358661;32;34852;-59
2023/06/20 05:48:26;;;;;;;13.15;6.35;;;;;;;26.19;44.98;99612.69;4360334;32;33296;-59
2023/06/20 05:50:53;;;;;;;8.85;5.53;;;;;;;25.93;45.52;99615.59;4361770;32;33630;-60
2023/06/20 05:53:22;;;;;;;9.80;4.82;;;;;;;25.98;46.19;99610.31;4267478;32;2987754;-60
2023/06/20 05:55:50;;;;;;;7.32;4.65;;;;;;;25.81;46.35;99612.72;4351224;32;34071;-60
2023/06/20 05:58:18;;;;;;;8.35;4.90;;;;;;;26.13;46.15;99608.12;4346688;33;33291;-60
2023/06/20 06:00:46;;;;;;;10.25;5.80;;;;;;;26.27;46.32;99608.88;4348456;32;33479;-60
2023/06/20 06:03:15;;;;;;;10.57;6.00;;;;;;;26.48;46.34;99607.72;4346619;32;34232;-59
2023/06/20 06:05:42;;;;;;;12.27;6.20;;;;;;;26.61;45.82;99621.38;4355665;32;33801;-59
2023/06/20 06:08:12;;;;;;;12.37;5.65;;;;;;;26.70;45.35;99613.69;4368763;32;33273;-59
2023/06/20 06:10:40;;;;;;;11.12;5.70;;;;;;;26.65;45.25;99613.53;4349284;32;33713;-59
2023/06/20 06:13:07;;;;;;;13.35;7.60;;;;;;;26.83;45.29;99612.72;4359167;32;34175;-60
2023/06/20 06:15:35;;;;;;;8.15;5.53;;;;;;;26.73;45.72;99613.22;4354737;32;33630;-59
2023/06/20 06:18:03;;;;;;;9.32;5.87;;;;;;;26.61;45.49;99615.00;4352159;32;34030;-59
2023/06/20 06:20:31;;;;;;;8.32;5.03;;;;;;;26.43;45.83;99615.75;4355125;32;33875;-59
2023/06/20 06:22:58;;;;;;;11.68;6.05;;;;;;;26.64;45.46;99612.66;4376528;32;35045;-59
2023/06/20 06:25:26;;;;;;;9.00;4.95;;;;;;;26.89;45.59;99614.59;4372243;32;33924;-59
2023/06/20 06:27:54;;;;;;;8.13;4.87;;;;;;;26.94;44.47;99621.09;4352168;32;33205;-59
2023/06/20 06:30:22;;;;;;;11.05;4.75;;;;;;;27.09;45.26;99628.13;4348957;32;33576;-59
2023/06/20 06:32:51;;;;;;;9.85;5.80;;;;;;;27.25;44.70;99624.84;4349508;32;33718;-59
2023/06/20 06:35:19;;;;;;;7.68;4.87;;;;;;;27.43;43.96;99628.69;4348986;32;33858;-60
2023/06/20 06:37:47;;;;;;;14.52;5.37;;;;;;;27.03;44.17;99629.91;4360847;32;33249;-59
2023/06/20 06:40:14;;;;;;;12.35;5.57;;;;;;;27.04;43.60;99623.34;4345685;32;33848;-59
2023/06/20 06:42:43;;;;;;;8.38;5.50;;;;;;;27.47;43.81;99629.91;4360491;32;34931;-59
2023/06/20 06:45:12;;;;;;;10.73;4.97;;;;;;;27.48;43.27;99629.69;4346736;32;33718;-59
2023/06/20 06:47:41;;;;;;;9.60;5.72;;;;;;;27.58;40.24;99629.19;4349544;32;33638;-60
2023/06/20 06:50:08;;;;;;;11.02;5.18;;;;;;;27.40;41.30;99628.06;4345906;32;34015;-60
2023/06/20 06:52:36;;;;;;;7.95;4.93;;;;;;;27.25;42.67;99624.84;4358938;32;35168;-59
2023/06/20 06:55:04;;;;;;;7.65;4.53;;;;;;;27.62;41.51;99616.66;4359904;32;33833;-59
2023/06/20 06:57:32;;;;;;;11.70;5.68;;;;;;;27.57;40.92;99625.56;4346367;33;32995;-60
2023/06/20 07:00:00;;;;;;;10.48;5.50;;;;;;;27.72;40.00;99622.44;4345621;32;35613;-60
2023/06/20 07:02:28;;;;;;;8.07;4.62;;;;;;;27.52;40.70;99624.59;4341553;32;34133;-61
2023/06/20 07:04:56;;;;;;;14.50;5.93;;;;;;;27.69;40.72;99616.56;4348073;32;34608;-59
2023/06/20 07:07:24;;;;;;;10.35;4.97;;;;;;;27.69;41.16;99627.56;4349616;32;33917;-60
2023/06/20 07:09:52;;;;;;;8.55;5.10;;;;;;;27.84;40.69;99630.81;4357461;32;34015;-60
2023/06/20 07:12:19;;;;;;;10.43;5.25;;;;;;;27.71;40.91;99628.19;4352802;32;35034;-60
2023/06/20 07:14:50;;;;;;;7.57;4.72;;;;;;;27.81;40.92;99634.84;4356037;32;33797;-60
2023/06/20 07:17:17;;;;;;;10.18;4.80;;;;;;;28.08;40.96;99643.59;4356510;32;33115;-59
2023/06/20 07:19:45;;;;;;;7.10;5.03;;;;;;;27.85;41.08;99647.06;4352493;32;35579;-59
2023/06/20 07:22:13;;;;;;;8.98;5.55;;;;;;;28.41;39.75;99647.88;4345402;32;35251;-59
2023/06/20 07:24:41;;;;;;;7.97;4.90;;;;;;;28.39;40.09;99647.22;4347363;32;34609;-59
2023/06/20 07:27:08;;;;;;;9.00;5.37;;;;;;;28.15;38.61;99645.44;4344372;33;34992;-59
2023/06/20 07:29:36;;;;;;;7.75;4.78;;;;;;;28.10;39.44;99652.47;4340573;32;34141;-59
2023/06/20 07:32:04;;;;;;;8.60;5.47;;;;;;;28.03;40.47;99657.22;4350398;32;33924;-59
2023/06/20 07:34:31;;;;;;;7.15;4.95;;;;;;;28.35;39.69;99654.28;4352140;32;34911;-60
2023/06/20 07:36:59;;;;;;;11.77;5.55;;;;;;;28.34;39.24;99658.06;4349115;32;33668;-59
2023/06/20 07:39:27;;;;;;;8.18;4.82;;;;;;;28.22;39.08;99659.94;4350362;32;33564;-59
2023/06/20 07:41:54;;;;;;;8.95;4.22;;;;;;;28.46;37.99;99666.41;4358379;32;33654;-59
2023/06/20 07:44:22;;;;;;;13.82;4.97;;;;;;;28.36;37.50;99661.44;4350736;32;33590;-60
2023/06/20 07:46:49;;;;;;;7.78;5.20;;;;;;;28.23;38.53;99661.62;4352731;32;33080;-59
2023/06/20 07:49:17;;;;;;;8.32;4.55;;;;;;;28.45;38.78;99660.09;4348560;32;33815;-59
2023/06/20 07:51:45;;;;;;;8.55;5.45;;;;;;;28.36;38.92;99660.59;4353892;32;33701;-60
2023/06/20 07:54:14;;;;;;;11.23;5.03;;;;;;;28.47;38.02;99659.84;4350452;32;33621;-59
2023/06/20 07:56:42;;;;;;;12.05;5.72;;;;;;;28.60;37.39;99662.38;4349410;32;34506;-60
2023/06/20 07:59:09;;;;;;;9.68;4.85;;;;;;;28.47;37.40;99670.84;4357274;32;33698;-66
2023/06/20 08:01:37;;;;;;;10.35;5.70;;;;;;;28.53;39.12;99668.00;4352883;32;33716;-59
2023/06/20 08:04:05;;;;;;;10.63;5.97;;;;;;;28.94;38.35;99666.31;4365390;32;33974;-60
2023/06/20 08:06:32;;;;;;;8.85;5.43;;;;;;;29.04;38.48;99662.19;4358351;32;33137;-59
2023/06/20 08:09:00;;;;;;;8.93;5.30;;;;;;;28.99;38.00;99663.69;4353689;32;33911;-60
2023/06/20 08:11:29;;;;;;;8.20;5.50;;;;;;;29.23;38.07;99669.25;4347490;32;33958;-59
2023/06/20 08:13:57;;;;;;;9.30;5.40;;;;;;;29.24;37.70;99671.75;4356287;32;33540;-59
2023/06/20 08:16:24;;;;;;;9.50;4.97;;;;;;;29.18;38.30;99664.47;4345904;32;33441;-60
2023/06/20 08:18:52;;;;;;;18.08;6.10;;;;;;;29.19;37.74;99660.63;4352723;32;34093;-59
2023/06/20 08:21:20;;;;;;;10.75;6.25;;;;;;;29.33;37.50;99652.97;4351102;32;34308;-60
2023/06/20 08:23:47;;;;;;;9.82;5.22;;;;;;;29.38;37.04;99658.59;4351073;32;34098;-60
2023/06/20 08:26:15;;;;;;;12.05;6.25;;;;;;;29.25;37.10;99664.38;4351021;32;33238;-60
2023/06/20 08:28:42;;;;;;;10.50;5.20;;;;;;;29.18;37.50;99672.75;4355064;32;34503;-59
2023/06/20 08:31:10;;;;;;;11.00;5.85;;;;;;;29.34;37.06;99659.31;4358787;32;33781;-59
2023/06/20 08:33:38;;;;;;;8.45;4.82;;;;;;;29.39;36.76;99663.03;4347307;32;34007;-59
2023/06/20 08:36:05;;;;;;;9.35;4.90;;;;;;;29.58;37.48;99677.53;4346796;32;34534;-60
2023/06/20 08:38:33;;;;;;;12.37;8.07;;;;;;;29.52;38.05;99666.63;4345647;32;33419;-60
2023/06/20 08:41:03;;;;;;;10.85;6.78;;;;;;;29.63;37.01;99666.66;4351597;32;33866;-59
2023/06/20 08:43:31;;;;;;;18.87;6.45;;;;;;;29.71;37.09;99668.22;4353684;32;33634;-60
2023/06/20 08:45:58;;;;;;;10.20;5.70;;;;;;;29.62;37.23;99658.63;4342783;32;33491;-61
2023/06/20 08:48:27;;;;;;;10.93;6.22;;;;;;;29.59;36.41;99670.09;4345589;32;33301;-60
2023/06/20 08:50:54;;;;;;;10.68;7.20;;;;;;;29.58;37.39;99661.00;4333997;32;35178;-60
2023/06/20 08:53:22;;;;;;;9.73;5.82;;;;;;;29.81;36.97;99654.62;4353985;32;33634;-59
2023/06/20 08:55:52;;;;;;;10.40;6.47;;;;;;;29.92;37.69;99656.53;4333720;33;33211;-60
2023/06/20 08:58:23;;;;;;;7.03;5.03;;;;;;;30.10;36.69;99654.69;4333893;33;35107;-59
2023/06/20 09:00:50;;;;;;;13.73;6.25;;;;;;;29.70;37.57;99652.75;4347737;32;34755;-60
2023/06/20 09:03:18;;;;;;;10.68;5.85;;;;;;;29.39;36.69;99653.94;4347037;32;36500;-60
2023/06/20 09:05:46;;;;;;;10.07;6.15;;;;;;;29.51;37.36;99653.94;4352012;32;33304;-60
2023/06/20 09:08:15;;;;;;;11.90;5.40;;;;;;;29.96;37.53;99647.78;4358037;32;32750;-60
2023/06/20 09:10:44;;;;;;;9.50;5.93;;;;;;;29.87;36.89;99655.59;4350710;32;35103;-60
2023/06/20 09:13:13;;;;;;;8.00;5.78;;;;;;;30.18;36.51;99649.63;4352536;32;34365;-60
2023/06/20 09:15:41;;;;;;;10.48;7.10;;;;;;;30.36;36.24;99651.37;4360605;32;33393;-60
2023/06/20 09:18:13;;;;;;;8.43;5.78;;;;;;;30.54;36.19;99652.25;4368318;32;33929;-60
2023/06/20 09:20:43;;;;;;;8.43;5.25;;;;;;;30.46;35.65;99653.47;4368705;32;34849;-60
2023/06/20 09:23:11;;;;;;;8.60;5.65;;;;;;;30.20;35.39;99654.09;4355076;32;34833;-60
2023/06/20 09:25:40;;;;;;;10.18;5.25;;;;;;;30.44;36.00;99652.06;4349985;32;33267;-59
2023/06/20 09:28:16;;;;;;;7.65;5.43;;;;;;;30.30;35.72;99649.59;4356636;32;35221;-59
2023/06/20 09:30:47;;;;;;;8.63;5.82;;;;;;;30.53;35.24;99658.84;4344700;32;34038;-60
2023/06/20 09:33:17;;;;;;;11.80;6.03;;;;;;;30.94;34.43;99654.94;4358842;32;33890;-60
2023/06/20 09:35:44;;;;;;;10.18;6.90;;;;;;;31.05;34.31;99648.50;4353219;32;34580;-60
2023/06/20 09:38:12;;;;;;;9.75;5.22;;;;;;;31.48;34.61;99646.97;4355458;32;34766;-60
2023/06/20 09:40:44;;;;;;;11.32;6.05;;;;;;;31.26;33.03;99651.56;4356201;32;33652;-60
2023/06/20 09:43:12;;;;;;;7.80;5.45;;;;;;;31.18;32.50;99652.84;4355329;32;33836;-60
2023/06/20 09:45:40;;;;;;;9.95;5.97;;;;;;;31.82;31.98;99657.13;4351600;32;33089;-60
2023/06/20 09:48:09;;;;;;;8.10;5.70;;;;;;;32.14;31.22;99651.75;4356203;32;34746;-60
2023/06/20 09:50:37;;;;;;;15.07;5.97;;;;;;;32.38;30.24;99657.84;4357566;32;33784;-60
2023/06/20 09:53:13;;;;;;;7.43;5.20;;;;;;;32.11;30.78;99660.59;4355237;32;34153;-60
2023/06/20 09:55:41;;;;;;;8.20;6.65;;;;;;;32.23;30.72;99656.59;4330036;32;33386;-60
2023/06/20 09:58:10;;;;;;;8.98;6.53;;;;;;;32.50;31.33;99653.03;4359013;32;32205;-60
2023/06/20 10:00:38;;;;;;;10.75;6.93;;;;;;;32.54;30.29;99653.31;4353701;32;33915;-60
2023/06/20 10:03:10;;;;;;;8.10;5.65;;;;;;;32.56;30.37;99648.38;4348510;32;32700;-61
2023/06/20 10:05:38;;;;;;;7.28;5.55;;;;;;;32.93;29.50;99656.75;4336929;32;33389;-60
2023/06/20 10:08:06;;;;;;;8.60;5.20;;;;;;;32.69;28.46;99647.94;4353822;32;32381;-60
2023/06/20 10:10:33;;;;;;;8.18;5.70;;;;;;;33.04;28.12;99643.84;4324888;33;34925;-60
2023/06/20 10:13:02;;;;;;;8.43;5.80;;;;;;;32.53;29.04;99646.12;4322972;33;34539;-60
2023/06/20 10:15:30;;;;;;;9.30;5.87;;;;;;;32.82;28.73;99650.28;4295015;33;34173;-60
2023/06/20 10:17:57;;;;;;;7.55;4.80;;;;;;;33.12;28.37;99646.12;4316051;33;34932;-60
2023/06/20 10:20:31;;;;;;;6.32;4.43;;;;;;;33.21;27.07;99640.94;4316907;33;34996;-60
2023/06/20 10:23:08;;;;;;;9.27;5.85;;;;;;;33.48;27.89;99647.19;4322652;33;34128;-60
2023/06/20 10:25:51;;;;;;;9.60;6.65;;;;;;;33.79;27.20;99644.63;4311985;33;34580;-60
2023/06/20 10:28:20;;;;;;;7.87;5.37;;;;;;;33.81;27.58;99637.72;4312492;33;33682;-60
2023/06/20 10:30:50;;;;;;;8.45;5.35;;;;;;;34.06;27.10;99634.25;4318498;33;33621;-60
2023/06/20 10:33:25;;;;;;;9.90;5.40;;;;;;;33.85;27.31;99635.22;4320341;33;33959;-60
2023/06/20 10:35:57;;;;;;;8.27;5.43;;;;;;;33.91;27.02;99633.31;4313468;33;34086;-60
2023/06/20 10:38:26;;;;;;;8.95;5.07;;;;;;;34.00;27.40;99638.09;4322766;33;33667;-60
2023/06/20 10:41:25;;;;;;;7.43;4.87;;;;;;;33.66;27.58;99629.31;4328479;32;33738;-60
2023/06/20 10:43:56;;;;;;;9.15;6.05;;;;;;;33.75;27.91;99635.19;4339766;32;34466;-60
2023/06/20 10:46:41;;;;;;;10.32;5.87;;;;;;;33.74;26.83;99625.16;4338660;32;33255;-60
2023/06/20 10:49:10;;;;;;;7.47;5.25;;;;;;;33.77;26.45;99621.84;4354545;32;33826;-60
2023/06/20 10:51:44;;;;;;;7.85;5.50;;;;;;;33.59;27.13;99635.09;4339514;32;33820;-60
2023/06/20 10:54:13;;;;;;;9.43;5.90;;;;;;;33.59;26.13;99629.56;4340870;32;34213;-60
2023/06/20 10:56:40;;;;;;;8.52;5.57;;;;;;;33.41;26.34;99624.41;4332169;32;34006;-59
2023/06/20 10:59:12;;;;;;;6.37;5.03;;;;;;;33.61;26.29;99632.03;4344865;32;33536;-59
2023/06/20 11:01:40;;;;;;;9.40;5.60;;;;;;;33.46;28.20;99632.78;4346348;32;33805;-60
2023/06/20 11:04:09;;;;;;;8.95;5.50;;;;;;;33.74;26.85;99639.91;4348173;32;33435;-60
2023/06/20 11:06:37;;;;;;;6.72;5.12;;;;;;;33.85;26.81;99627.75;4350824;32;32943;-60
2023/06/20 11:09:16;;;;;;;11.73;5.40;;;;;;;33.68;25.88;99627.13;4350888;32;34948;-61
2023/06/20 11:11:43;;;;;;;9.57;5.32;;;;;;;33.39;27.49;99624.69;4342025;32;34114;-60
2023/06/20 11:14:21;;;;;;;7.25;5.22;;;;;;;32.88;28.46;99624.28;4346053;32;35099;-60
2023/06/20 11:16:51;;;;;;;9.38;4.87;;;;;;;33.46;26.92;99620.84;4352677;32;34268;-59
2023/06/20 11:19:22;;;;;;;8.07;4.65;;;;;;;33.48;26.73;99622.22;4368830;32;34860;-60
2023/06/20 11:21:53;;;;;;;7.43;5.07;;;;;;;33.34;26.58;99616.31;4360619;32;33845;-60
2023/06/20 11:24:21;;;;;;;6.45;4.45;;;;;;;33.69;26.46;99617.66;4348172;32;36088;-60
2023/06/20 11:26:48;;;;;;;10.85;6.72;;;;;;;33.94;25.85;99608.62;4349011;32;34259;-59
2023/06/20 11:29:16;;;;;;;7.25;4.97;;;;;;;34.00;26.43;99596.44;4353840;32;33938;-60
2023/06/20 11:31:44;;;;;;;12.02;6.03;;;;;;;33.69;26.10;99598.25;4351121;32;33921;-60
2023/06/20 11:34:12;;;;;;;7.70;5.55;;;;;;;33.38;26.91;99598.03;4348928;32;34790;-60
2023/06/20 11:36:40;;;;;;;7.35;4.57;;;;;;;33.41;26.98;99596.69;4361640;32;33211;-60
2023/06/20 11:39:14;;;;;;;9.20;5.25;;;;;;;33.37;27.02;99593.59;4361424;32;33710;-60
2023/06/20 11:41:41;;;;;;;8.15;4.85;;;;;;;33.34;26.94;99605.22;4345653;32;35794;-60
2023/06/20 11:44:23;;;;;;;9.68;5.40;;;;;;;33.51;26.56;99599.53;4357216;32;34959;-60